Time;durP1;ratioP1;P1;durP2;ratioP2;P2;SDS_P1;SDS_P2;PMS_P1;PMS_P2;Temp;Humidity;BMP_temperature;BMP_pressure;BME280_temperature;BME280_humidity;BME280_pressure;Samples;Min_cycle;Max_cycle;Signal;HPM_P1;HPM_P2
2023/03/18 00:00:08;;;;;;;7.20;6.03;;;15.80;1.00;;;;;;5094918;28;20119;-36
2023/03/18 00:02:37;;;;;;;11.18;6.65;;;15.80;1.00;;;;;;5094528;28;20051;-36
2023/03/18 00:05:06;;;;;;;10.02;7.15;;;15.70;1.00;;;;;;5094991;28;20090;-36
2023/03/18 00:07:35;;;;;;;8.57;6.43;;;15.70;1.00;;;;;;5076621;28;20502;-36
2023/03/18 00:10:03;;;;;;;9.25;6.80;;;15.70;1.00;;;;;;5094808;28;20055;-36
2023/03/18 00:12:32;;;;;;;10.13;6.63;;;15.80;1.00;;;;;;5094357;28;20044;-36
2023/03/18 00:14:59;;;;;;;11.02;7.20;;;15.70;1.00;;;;;;5094296;28;20036;-36
2023/03/18 00:17:26;;;;;;;10.48;6.82;;;15.70;1.00;;;;;;5094505;28;20070;-36
2023/03/18 00:19:53;;;;;;;12.75;7.20;;;15.80;1.00;;;;;;5094677;28;20040;-36
2023/03/18 00:22:21;;;;;;;7.47;5.80;;;15.70;1.00;;;;;;5094232;28;20072;-36
2023/03/18 00:24:48;;;;;;;11.05;7.70;;;15.80;1.00;;;;;;5093047;28;20039;-36
2023/03/18 00:27:15;;;;;;;9.35;7.05;;;15.80;1.00;;;;;;5084278;28;20437;-36
2023/03/18 00:29:42;;;;;;;11.98;7.05;;;15.70;1.00;;;;;;5094073;28;20453;-36
2023/03/18 00:32:10;;;;;;;10.00;7.40;;;15.70;1.00;;;;;;5084522;28;20044;-36
2023/03/18 00:34:36;;;;;;;10.32;7.68;;;15.70;1.00;;;;;;5093862;28;20491;-36
2023/03/18 00:37:03;;;;;;;11.25;7.95;;;15.70;1.00;;;;;;5092965;28;20135;-36
2023/03/18 00:39:31;;;;;;;11.75;7.28;;;15.70;1.00;;;;;;5092970;28;20048;-36
2023/03/18 00:42:06;;;;;;;11.27;7.00;;;15.70;1.00;;;;;;5092947;28;20071;-36
2023/03/18 00:44:33;;;;;;;9.60;7.70;;;15.70;1.00;;;;;;5092366;28;20048;-36
2023/03/18 00:47:00;;;;;;;11.88;7.60;;;15.70;1.00;;;;;;5093034;28;20083;-35
2023/03/18 00:49:27;;;;;;;12.93;8.43;;;15.70;1.00;;;;;;5094010;28;20042;-36
2023/03/18 00:51:54;;;;;;;12.02;7.70;;;15.70;1.00;;;;;;5093981;28;20044;-35
2023/03/18 00:54:21;;;;;;;11.13;6.95;;;15.70;1.00;;;;;;5092007;28;20043;-36
2023/03/18 00:56:48;;;;;;;9.20;7.15;;;15.70;1.00;;;;;;5092579;28;20744;-35
2023/03/18 00:59:15;;;;;;;8.50;6.28;;;15.70;1.00;;;;;;5104105;22;20477;-37
2023/03/18 01:01:43;;;;;;;11.85;7.95;;;15.70;1.00;;;;;;5075594;28;20414;-37
2023/03/18 01:04:10;;;;;;;10.27;7.72;;;15.70;1.00;;;;;;5074909;28;20063;-37
2023/03/18 01:06:38;;;;;;;10.75;7.78;;;15.70;1.00;;;;;;5075447;28;20075;-37
2023/03/18 01:09:09;;;;;;;10.30;7.50;;;15.70;1.00;;;;;;5093227;28;20040;-37
2023/03/18 01:11:37;;;;;;;13.60;8.27;;;15.70;1.00;;;;;;5075505;28;20093;-37
2023/03/18 01:14:05;;;;;;;11.40;7.43;;;15.70;1.00;;;;;;5092881;28;20112;-37
2023/03/18 01:16:31;;;;;;;11.32;8.50;;;15.70;1.00;;;;;;5075274;28;20044;-37
2023/03/18 01:18:58;;;;;;;10.90;7.90;;;15.70;1.00;;;;;;5093495;28;20047;-37
2023/03/18 01:21:25;;;;;;;10.93;8.70;;;15.70;1.00;;;;;;5075262;28;20134;-37
2023/03/18 01:23:55;;;;;;;9.38;7.30;;;15.70;1.00;;;;;;5074396;28;20048;-37
2023/03/18 01:26:24;;;;;;;11.68;8.40;;;15.70;1.00;;;;;;5075096;28;20044;-37
2023/03/18 01:28:53;;;;;;;15.80;8.32;;;15.70;1.00;;;;;;5075029;28;20052;-37
2023/03/18 01:31:20;;;;;;;10.00;7.75;;;15.70;1.00;;;;;;5075136;28;20461;-37
2023/03/18 01:33:47;;;;;;;12.02;7.78;;;15.70;1.00;;;;;;5074281;28;20040;-37
2023/03/18 01:36:16;;;;;;;11.77;7.95;;;15.70;1.00;;;;;;5074619;28;20055;-37
2023/03/18 01:38:48;;;;;;;13.10;7.90;;;15.70;1.00;;;;;;5074873;28;20636;-37
2023/03/18 01:41:16;;;;;;;9.98;7.85;;;15.60;1.00;;;;;;5093088;28;20032;-37
2023/03/18 01:43:43;;;;;;;10.88;8.57;;;15.70;1.00;;;;;;5074121;28;20036;-37
2023/03/18 01:46:29;;;;;;;12.40;8.77;;;15.60;1.00;;;;;;5074798;28;20040;-37
2023/03/18 01:48:56;;;;;;;10.63;7.80;;;15.70;1.00;;;;;;5074642;28;20109;-37
2023/03/18 01:51:25;;;;;;;13.25;8.20;;;15.60;1.00;;;;;;5074643;28;20128;-37
2023/03/18 01:53:53;;;;;;;12.93;8.75;;;15.60;1.00;;;;;;5092089;28;20055;-37
2023/03/18 01:56:20;;;;;;;10.52;8.25;;;15.60;1.00;;;;;;5074605;28;20040;-37
2023/03/18 01:58:54;;;;;;;10.27;7.75;;;15.60;1.00;;;;;;5074316;28;20495;-37
2023/03/18 02:01:27;;;;;;;13.20;9.60;;;15.60;1.00;;;;;;5074428;28;20044;-37
2023/03/18 02:03:56;;;;;;;11.98;8.57;;;15.60;1.00;;;;;;5073622;28;20036;-37
2023/03/18 02:06:24;;;;;;;13.70;9.45;;;15.60;1.00;;;;;;5074484;28;20040;-37
2023/03/18 02:08:59;;;;;;;12.73;9.85;;;15.60;1.00;;;;;;5074394;28;20048;-37
2023/03/18 02:11:37;;;;;;;13.88;8.25;;;15.60;1.00;;;;;;5074337;28;20047;-37
2023/03/18 02:14:05;;;;;;;15.10;9.60;;;15.60;1.00;;;;;;5073607;28;20036;-37
2023/03/18 02:16:38;;;;;;;11.40;8.27;;;15.60;1.00;;;;;;5074254;28;20047;-37
2023/03/18 02:19:35;;;;;;;13.32;8.45;;;15.60;1.00;;;;;;5092328;28;20044;-37
2023/03/18 02:22:23;;;;;;;12.88;8.57;;;15.60;1.00;;;;;;5061704;28;20112;-37
2023/03/18 02:24:58;;;;;;;11.73;8.68;;;15.60;1.00;;;;;;5073833;28;20041;-37
2023/03/18 02:27:29;;;;;;;11.25;8.60;;;15.60;1.00;;;;;;5074123;28;20109;-37
2023/03/18 02:30:01;;;;;;;11.75;8.50;;;15.60;1.00;;;;;;5073973;28;20415;-37
2023/03/18 02:32:34;;;;;;;11.38;9.48;;;15.60;1.00;;;;;;5073612;28;20075;-37
2023/03/18 02:35:06;;;;;;;12.65;9.10;;;15.50;1.00;;;;;;5091753;28;20475;-37
2023/03/18 02:37:34;;;;;;;13.20;8.65;;;15.60;1.00;;;;;;5074197;28;20051;-37
2023/03/18 02:40:22;;;;;;;13.45;9.55;;;15.60;1.00;;;;;;5073879;28;20268;-37
2023/03/18 02:42:50;;;;;;;9.75;8.07;;;15.50;1.00;;;;;;5073265;28;20525;-37
2023/03/18 02:45:34;;;;;;;10.88;8.57;;;15.50;1.00;;;;;;5073936;28;20048;-37
2023/03/18 02:48:16;;;;;;;12.57;8.57;;;15.60;1.00;;;;;;5073921;28;20070;-37
2023/03/18 02:50:44;;;;;;;11.40;7.90;;;15.60;1.00;;;;;;5073710;28;20491;-37
2023/03/18 02:53:12;;;;;;;11.85;8.38;;;15.60;1.00;;;;;;5073058;28;20450;-37
2023/03/18 02:55:41;;;;;;;10.40;7.82;;;15.60;1.00;;;;;;5073812;28;20044;-37
2023/03/18 02:58:08;;;;;;;9.68;7.32;;;15.50;1.00;;;;;;5073709;28;20051;-37
2023/03/18 03:00:36;;;;;;;13.45;8.35;;;15.60;1.00;;;;;;5073572;28;20583;-37
2023/03/18 03:03:04;;;;;;;10.30;7.50;;;15.50;1.00;;;;;;5073063;28;20051;-37
2023/03/18 03:05:33;;;;;;;12.05;8.38;;;15.50;1.00;;;;;;5091713;28;20055;-37
2023/03/18 03:08:01;;;;;;;12.25;8.30;;;15.50;1.00;;;;;;5073656;28;20039;-37
2023/03/18 03:10:31;;;;;;;11.13;8.10;;;15.50;1.00;;;;;;5073668;28;20047;-37
2023/03/18 03:12:59;;;;;;;13.23;8.50;;;15.50;1.00;;;;;;5072912;28;20048;-37
2023/03/18 03:15:26;;;;;;;14.55;8.98;;;15.50;1.00;;;;;;5073576;28;20051;-37
2023/03/18 03:17:56;;;;;;;13.02;8.00;;;15.50;1.00;;;;;;5073574;28;20410;-37
2023/03/18 03:20:23;;;;;;;13.52;9.10;;;15.50;1.00;;;;;;5073473;28;20040;-37
2023/03/18 03:22:50;;;;;;;12.63;8.73;;;15.50;1.00;;;;;;5090993;28;20483;-37
2023/03/18 03:25:18;;;;;;;13.27;8.73;;;15.50;1.00;;;;;;5073503;28;20495;-37
2023/03/18 03:27:45;;;;;;;11.50;9.18;;;15.50;1.00;;;;;;5091632;28;20048;-37
2023/03/18 03:30:13;;;;;;;11.90;8.50;;;15.50;1.00;;;;;;5073478;28;20047;-37
2023/03/18 03:32:41;;;;;;;12.57;8.68;;;15.50;1.00;;;;;;5075525;28;20161;-37
2023/03/18 03:35:12;;;;;;;12.43;8.32;;;15.50;1.00;;;;;;5077210;28;20044;-37
2023/03/18 03:37:40;;;;;;;13.20;9.60;;;15.50;1.00;;;;;;5095509;28;20036;-37
2023/03/18 03:40:10;;;;;;;12.00;8.40;;;15.50;1.00;;;;;;5077270;28;20044;-37
2023/03/18 03:42:37;;;;;;;12.55;8.13;;;15.50;1.00;;;;;;5076587;28;20036;-37
2023/03/18 03:45:06;;;;;;;12.13;7.93;;;15.50;1.00;;;;;;5077405;28;20491;-37
2023/03/18 03:47:33;;;;;;;13.25;9.40;;;15.50;1.00;;;;;;5076945;28;20127;-37
2023/03/18 03:50:00;;;;;;;12.55;9.45;;;15.50;1.00;;;;;;5077054;28;20181;-37
2023/03/18 03:52:27;;;;;;;11.63;8.05;;;15.40;1.00;;;;;;5076547;28;20044;-37
2023/03/18 03:54:59;;;;;;;13.38;8.70;;;15.40;1.00;;;;;;5076575;28;20047;-37
2023/03/18 03:57:27;;;;;;;14.43;8.52;;;15.40;1.00;;;;;;5076899;28;20048;-37
2023/03/18 03:59:55;;;;;;;13.57;9.10;;;15.50;1.00;;;;;;5076235;28;20055;-37
2023/03/18 04:02:40;;;;;;;11.63;8.57;;;15.50;1.00;;;;;;5094278;28;20048;-37
2023/03/18 04:05:10;;;;;;;13.57;9.63;;;15.40;1.00;;;;;;5076764;28;20127;-37
2023/03/18 04:07:37;;;;;;;13.25;9.20;;;15.40;1.00;;;;;;5094975;28;20101;-37
2023/03/18 04:10:05;;;;;;;12.40;9.02;;;15.40;1.00;;;;;;5094819;28;20126;-37
2023/03/18 04:12:32;;;;;;;14.10;9.60;;;15.40;1.00;;;;;;5076203;28;20404;-37
2023/03/18 04:15:00;;;;;;;15.50;10.20;;;15.40;1.00;;;;;;5076220;28;20046;-37
2023/03/18 04:17:27;;;;;;;12.95;9.55;;;15.40;1.00;;;;;;5076542;28;20044;-37
2023/03/18 04:19:54;;;;;;;13.75;9.38;;;15.40;1.00;;;;;;5076439;28;20048;-37
2023/03/18 04:22:26;;;;;;;11.73;8.25;;;15.40;1.00;;;;;;5076045;28;20058;-37
2023/03/18 04:24:53;;;;;;;13.55;9.60;;;15.40;1.00;;;;;;5094125;28;20043;-37
2023/03/18 04:27:21;;;;;;;17.33;9.27;;;15.40;1.00;;;;;;5076525;28;20073;-37
2023/03/18 04:29:49;;;;;;;14.48;9.15;;;15.40;1.00;;;;;;5076180;28;20135;-37
2023/03/18 04:32:16;;;;;;;14.25;9.20;;;15.40;1.00;;;;;;5075869;28;20051;-37
2023/03/18 04:34:43;;;;;;;12.27;9.23;;;15.40;1.00;;;;;;5094060;28;20052;-37
2023/03/18 04:37:13;;;;;;;14.23;10.30;;;15.40;1.00;;;;;;5094255;28;20032;-37
2023/03/18 04:39:41;;;;;;;13.52;9.10;;;15.40;1.00;;;;;;5076011;28;20458;-37
2023/03/18 04:42:09;;;;;;;13.45;8.95;;;15.40;1.00;;;;;;5075861;28;20044;-37
2023/03/18 04:44:36;;;;;;;16.40;10.55;;;15.40;1.00;;;;;;5074535;28;20570;-37
2023/03/18 04:47:04;;;;;;;12.13;8.65;;;15.40;1.00;;;;;;5075823;28;20097;-37
2023/03/18 04:49:31;;;;;;;13.82;8.98;;;15.40;1.00;;;;;;5059545;28;20147;-37
2023/03/18 04:52:01;;;;;;;12.52;9.20;;;15.30;1.00;;;;;;5075764;28;20127;-37
2023/03/18 04:54:30;;;;;;;13.50;9.48;;;15.30;1.00;;;;;;5075191;28;20689;-37
2023/03/18 04:57:01;;;;;;;12.80;9.80;;;15.40;1.00;;;;;;5075696;28;20438;-37
2023/03/18 04:59:30;;;;;;;14.55;10.77;;;15.30;1.00;;;;;;5075619;28;20389;-37
2023/03/18 05:02:03;;;;;;;15.02;10.27;;;15.30;1.00;;;;;;5075768;28;20423;-37
2023/03/18 05:04:32;;;;;;;13.52;9.57;;;15.30;1.00;;;;;;5074796;28;20070;-37
2023/03/18 05:07:00;;;;;;;14.88;9.15;;;15.30;1.00;;;;;;5075615;28;20442;-37
2023/03/18 05:09:33;;;;;;;16.38;9.85;;;15.40;1.00;;;;;;5075564;28;20040;-37
2023/03/18 05:12:00;;;;;;;14.85;10.10;;;15.30;1.00;;;;;;5075422;28;20044;-37
2023/03/18 05:14:31;;;;;;;12.02;8.98;;;15.30;1.00;;;;;;5074713;28;20040;-37
2023/03/18 05:16:59;;;;;;;13.75;10.50;;;15.30;1.00;;;;;;5075196;28;20089;-37
2023/03/18 05:19:27;;;;;;;18.35;11.00;;;15.30;1.00;;;;;;5075324;28;20064;-37
2023/03/18 05:22:10;;;;;;;13.55;9.15;;;15.30;1.00;;;;;;5075192;28;20033;-37
2023/03/18 05:24:39;;;;;;;14.18;9.68;;;15.30;1.00;;;;;;5074758;28;20138;-37
2023/03/18 05:27:06;;;;;;;17.02;11.18;;;15.30;1.00;;;;;;5075240;28;20629;-37
2023/03/18 05:29:39;;;;;;;15.55;10.75;;;15.30;1.00;;;;;;5074972;28;20044;-37
2023/03/18 05:32:19;;;;;;;14.35;10.23;;;15.30;1.00;;;;;;5074849;28;20051;-37
2023/03/18 05:34:51;;;;;;;15.45;9.82;;;15.30;1.00;;;;;;5074740;28;20044;-37
2023/03/18 05:37:18;;;;;;;15.68;9.88;;;15.30;1.00;;;;;;5075052;28;20044;-37
2023/03/18 05:39:55;;;;;;;13.57;10.70;;;15.30;1.00;;;;;;5074802;28;20067;-37
2023/03/18 05:42:23;;;;;;;15.10;11.10;;;15.30;1.00;;;;;;5074501;28;20035;-37
2023/03/18 05:44:50;;;;;;;16.15;10.38;;;15.30;1.00;;;;;;5074395;28;20044;-37
2023/03/18 05:47:20;;;;;;;13.23;10.30;;;15.30;1.00;;;;;;5074831;28;20560;-37
2023/03/18 05:49:58;;;;;;;15.95;11.35;;;15.30;1.00;;;;;;5074703;28;20064;-37
2023/03/18 05:52:27;;;;;;;13.40;10.00;;;15.20;1.00;;;;;;5074212;28;20043;-37
2023/03/18 05:54:57;;;;;;;13.45;10.27;;;15.30;1.00;;;;;;5073949;28;20040;-37
2023/03/18 05:57:29;;;;;;;13.93;10.23;;;15.30;1.00;;;;;;5074429;28;20044;-37
2023/03/18 06:00:00;;;;;;;15.85;9.80;;;15.20;1.00;;;;;;5074399;28;20094;-37
2023/03/18 06:02:31;;;;;;;15.00;10.98;;;15.20;1.00;;;;;;5087098;28;20113;-37
2023/03/18 06:04:58;;;;;;;14.85;10.63;;;15.20;1.00;;;;;;5074614;28;20036;-37
2023/03/18 06:07:26;;;;;;;16.35;11.20;;;15.20;1.00;;;;;;5077424;28;20479;-37
2023/03/18 06:09:53;;;;;;;16.10;10.52;;;15.20;1.00;;;;;;5055674;28;20062;-37
2023/03/18 06:12:22;;;;;;;14.10;10.45;;;15.20;1.00;;;;;;5047699;28;20084;-37
2023/03/18 06:14:49;;;;;;;15.10;11.00;;;15.20;1.00;;;;;;5057531;28;20050;-37
2023/03/18 06:17:16;;;;;;;15.07;10.80;;;15.20;1.00;;;;;;5057430;28;20047;-37
2023/03/18 06:19:44;;;;;;;16.42;11.43;;;15.20;1.00;;;;;;5081505;28;20060;-37
2023/03/18 06:22:11;;;;;;;15.50;11.05;;;15.20;1.00;;;;;;5053806;28;20642;-37
2023/03/18 06:24:38;;;;;;;17.15;11.02;;;15.20;1.00;;;;;;5060667;28;20040;-37
2023/03/18 06:27:05;;;;;;;19.27;11.50;;;15.20;1.00;;;;;;5069725;28;20791;-37
2023/03/18 06:29:34;;;;;;;13.75;11.00;;;15.20;1.00;;;;;;5079736;28;20047;-37
2023/03/18 06:32:07;;;;;;;14.75;11.35;;;15.20;1.00;;;;;;5067425;28;20040;-37
2023/03/18 06:34:35;;;;;;;19.17;10.98;;;15.20;1.00;;;;;;5071108;28;20388;-37
2023/03/18 06:37:03;;;;;;;18.35;12.50;;;15.20;1.00;;;;;;5080095;28;20051;-37
2023/03/18 06:39:33;;;;;;;18.58;11.38;;;15.20;1.00;;;;;;5077397;28;20048;-37
2023/03/18 06:42:03;;;;;;;15.63;11.43;;;15.20;1.00;;;;;;5072339;28;20457;-37
2023/03/18 06:44:34;;;;;;;14.55;11.05;;;15.20;1.00;;;;;;5068325;28;20483;-37
2023/03/18 06:47:10;;;;;;;16.75;11.55;;;15.20;1.00;;;;;;5076255;28;20495;-37
2023/03/18 06:49:43;;;;;;;14.27;9.68;;;15.20;1.00;;;;;;5068816;28;20051;-37
2023/03/18 06:52:17;;;;;;;18.42;10.95;;;15.20;1.00;;;;;;5071450;28;20571;-37
2023/03/18 06:54:46;;;;;;;17.92;10.90;;;15.20;1.00;;;;;;5069384;28;20078;-37
2023/03/18 06:57:15;;;;;;;15.65;11.38;;;15.20;1.00;;;;;;5068221;28;20051;-37
2023/03/18 06:59:42;;;;;;;14.45;11.18;;;15.20;1.00;;;;;;5079474;28;20037;-37
2023/03/18 07:02:09;;;;;;;19.38;11.27;;;15.20;1.00;;;;;;5074671;28;20051;-37
2023/03/18 07:04:36;;;;;;;18.17;10.82;;;15.20;1.00;;;;;;5068181;28;20089;-37
2023/03/18 07:07:04;;;;;;;16.77;12.20;;;15.30;1.00;;;;;;5074425;28;20143;-37
2023/03/18 07:09:32;;;;;;;16.73;11.30;;;15.30;1.00;;;;;;5076334;28;20548;-37
2023/03/18 07:12:00;;;;;;;18.02;10.57;;;15.20;1.00;;;;;;5076536;28;20123;-37
2023/03/18 07:14:27;;;;;;;14.27;9.98;;;15.30;1.00;;;;;;5095149;28;20058;-37
2023/03/18 07:16:55;;;;;;;14.60;10.75;;;15.30;1.00;;;;;;5078564;28;20040;-37
2023/03/18 07:19:22;;;;;;;15.60;11.57;;;15.30;1.00;;;;;;5094798;28;20063;-37
2023/03/18 07:21:50;;;;;;;14.93;10.60;;;15.30;1.00;;;;;;5074424;28;20044;-37
2023/03/18 07:24:19;;;;;;;15.00;10.57;;;15.30;1.00;;;;;;5086213;28;20063;-37
2023/03/18 07:26:49;;;;;;;14.30;10.60;;;15.30;1.00;;;;;;5075066;28;20063;-37
2023/03/18 07:29:16;;;;;;;15.75;11.00;;;15.30;1.00;;;;;;5079141;28;20048;-37
2023/03/18 07:31:43;;;;;;;16.77;10.25;;;15.30;1.00;;;;;;5078109;28;20154;-37
2023/03/18 07:34:11;;;;;;;17.42;11.10;;;15.30;1.00;;;;;;5072022;28;20070;-37
2023/03/18 07:36:38;;;;;;;13.65;9.80;;;15.30;1.00;;;;;;5073512;28;20044;-37
2023/03/18 07:39:06;;;;;;;14.52;10.35;;;15.30;1.00;;;;;;5077258;28;20032;-37
2023/03/18 07:41:33;;;;;;;17.45;11.82;;;15.30;1.00;;;;;;5090779;28;20049;-37
2023/03/18 07:44:03;;;;;;;14.63;10.13;;;15.30;1.00;;;;;;5086926;28;20057;-37
2023/03/18 07:46:30;;;;;;;14.13;10.60;;;15.30;1.00;;;;;;5087628;28;20043;-37
2023/03/18 07:48:57;;;;;;;16.70;11.90;;;15.30;1.00;;;;;;5094898;28;20126;-37
2023/03/18 07:51:24;;;;;;;16.83;10.90;;;15.30;1.00;;;;;;5092723;28;20043;-37
2023/03/18 07:53:51;;;;;;;18.45;10.98;;;15.30;1.00;;;;;;5090046;28;20531;-37
2023/03/18 07:56:18;;;;;;;13.20;10.63;;;15.30;1.00;;;;;;5094526;28;20050;-37
2023/03/18 07:58:45;;;;;;;17.67;10.88;;;15.30;1.00;;;;;;5094669;28;20105;-37
2023/03/18 08:01:14;;;;;;;17.17;10.07;;;15.30;1.00;;;;;;5095103;28;20044;-37
2023/03/18 08:03:42;;;;;;;17.55;10.45;;;15.30;1.00;;;;;;5094001;28;20130;-37
2023/03/18 08:06:10;;;;;;;17.10;9.95;;;15.30;1.00;;;;;;5094862;28;20040;-37
2023/03/18 08:08:38;;;;;;;12.27;8.88;;;15.30;1.00;;;;;;5094794;28;20082;-37
2023/03/18 08:11:05;;;;;;;15.40;9.98;;;15.30;1.00;;;;;;5094878;28;20051;-37
2023/03/18 08:13:31;;;;;;;14.43;9.85;;;15.30;1.00;;;;;;5094029;28;20097;-37
2023/03/18 08:15:58;;;;;;;13.95;9.00;;;15.30;1.00;;;;;;5094738;28;20119;-37
2023/03/18 08:18:25;;;;;;;11.43;8.35;;;15.30;1.00;;;;;;5094245;28;20044;-37
2023/03/18 08:20:53;;;;;;;12.63;9.20;;;15.30;1.00;;;;;;5094575;28;20040;-37
2023/03/18 08:23:20;;;;;;;12.45;8.73;;;15.30;1.00;;;;;;5093844;28;20064;-37
2023/03/18 08:25:50;;;;;;;11.23;9.18;;;15.30;1.00;;;;;;5093583;28;20510;-37
2023/03/18 08:28:29;;;;;;;16.83;9.48;;;15.30;1.00;;;;;;5094140;28;20052;-37
2023/03/18 08:30:58;;;;;;;34.33;12.25;;;15.30;1.00;;;;;;5092203;28;20036;-37
2023/03/18 08:33:26;;;;;;;12.65;9.25;;;15.30;1.00;;;;;;5088999;28;20627;-37
2023/03/18 08:35:55;;;;;;;14.05;9.25;;;15.30;1.00;;;;;;5088675;28;20032;-37
2023/03/18 08:38:23;;;;;;;12.65;9.82;;;15.30;1.00;;;;;;5089121;28;20041;-37
2023/03/18 08:40:50;;;;;;;12.85;8.95;;;15.30;1.00;;;;;;5092108;28;20085;-37
2023/03/18 08:43:20;;;;;;;13.65;9.10;;;15.30;1.00;;;;;;5086612;28;20112;-37
2023/03/18 08:45:52;;;;;;;10.48;8.93;;;15.30;1.00;;;;;;5091068;28;20036;-37
2023/03/18 08:48:20;;;;;;;13.95;9.32;;;15.30;1.00;;;;;;5085628;28;20545;-38
2023/03/18 08:50:47;;;;;;;16.73;9.68;;;15.30;1.00;;;;;;5065378;28;20119;-37
2023/03/18 08:53:14;;;;;;;18.83;9.15;;;15.30;1.00;;;;;;5082611;28;20044;-37
2023/03/18 08:55:41;;;;;;;11.88;8.70;;;15.30;1.00;;;;;;5089081;28;20040;-38
2023/03/18 08:58:08;;;;;;;17.23;9.20;;;15.30;1.00;;;;;;5091080;28;20101;-37
2023/03/18 09:00:38;;;;;;;13.80;8.57;;;15.30;1.00;;;;;;5089911;28;20119;-37
2023/03/18 09:03:05;;;;;;;13.77;8.35;;;15.30;1.00;;;;;;5089462;28;20055;-37
2023/03/18 09:05:35;;;;;;;11.00;7.03;;;15.30;1.00;;;;;;5077732;28;20103;-37
2023/03/18 09:08:02;;;;;;;14.10;7.10;;;15.30;1.00;;;;;;5084507;28;20044;-37
2023/03/18 09:10:29;;;;;;;12.02;7.28;;;15.30;1.00;;;;;;5073221;28;20045;-37
2023/03/18 09:12:56;;;;;;;9.80;6.07;;;15.30;1.00;;;;;;5072709;28;20123;-38
2023/03/18 09:15:23;;;;;;;9.23;5.88;;;15.30;1.00;;;;;;5073373;28;20102;-38
2023/03/18 09:17:49;;;;;;;7.93;5.50;;;15.40;1.00;;;;;;5073112;28;20083;-37
2023/03/18 09:20:36;;;;;;;7.78;5.82;;;15.30;1.00;;;;;;5073243;28;20495;-38
2023/03/18 09:23:03;;;;;;;7.45;5.47;;;15.40;1.00;;;;;;5072325;28;20526;-38
2023/03/18 09:25:30;;;;;;;7.63;5.10;;;15.40;1.00;;;;;;5073089;28;20063;-38
2023/03/18 09:27:57;;;;;;;10.13;5.50;;;15.40;1.00;;;;;;5073086;28;20040;-38
2023/03/18 09:30:25;;;;;;;7.35;4.40;;;15.50;1.00;;;;;;5072396;28;20044;-38
2023/03/18 09:32:52;;;;;;;5.93;4.00;;;15.50;1.00;;;;;;5072256;28;20071;-37
2023/03/18 09:35:19;;;;;;;7.20;5.18;;;15.50;1.00;;;;;;5072882;28;20048;-38
2023/03/18 09:37:47;;;;;;;11.80;4.70;;;15.50;1.00;;;;;;5072813;28;20048;-38
2023/03/18 09:40:36;;;;;;;6.97;4.05;;;15.50;1.00;;;;;;5085896;28;20066;-38
2023/03/18 09:43:25;;;;;;;7.80;3.63;;;15.60;1.00;;;;;;5087551;28;20040;-38
2023/03/18 09:46:16;;;;;;;5.57;4.10;;;15.60;1.00;;;;;;5083975;28;20060;-38
2023/03/18 09:48:51;;;;;;;6.97;4.15;;;15.60;1.00;;;;;;5083112;28;20040;-38
2023/03/18 09:51:27;;;;;;;7.70;3.50;;;15.70;1.00;;;;;;5088929;28;20052;-38
2023/03/18 09:54:15;;;;;;;7.30;3.67;;;15.70;1.00;;;;;;5086797;28;20190;-38
2023/03/18 09:56:44;;;;;;;6.20;3.17;;;15.70;1.00;;;;;;5076007;28;20032;-38
2023/03/18 09:59:30;;;;;;;3.85;3.10;;;15.80;1.00;;;;;;5091201;28;20115;-38
2023/03/18 10:01:58;;;;;;;5.63;3.50;;;15.80;1.00;;;;;;5088333;28;20173;-38
2023/03/18 10:04:39;;;;;;;5.28;3.08;;;15.80;1.00;;;;;;5091803;28;20115;-38
2023/03/18 10:07:13;;;;;;;3.90;2.67;;;15.90;1.00;;;;;;5090742;28;20032;-38
2023/03/18 10:09:51;;;;;;;3.78;3.15;;;15.90;1.00;;;;;;5090918;28;20067;-38
2023/03/18 10:12:23;;;;;;;4.35;3.30;;;16.00;1.00;;;;;;5087192;28;20168;-38
2023/03/18 10:14:50;;;;;;;5.43;3.40;;;16.00;1.00;;;;;;5083279;28;20083;-38
2023/03/18 10:17:27;;;;;;;5.22;3.33;;;16.00;1.00;;;;;;5089990;28;20051;-38
2023/03/18 10:19:57;;;;;;;4.68;2.95;;;16.00;1.00;;;;;;5092214;28;20043;-37
2023/03/18 10:22:26;;;;;;;5.78;4.18;;;16.00;1.00;;;;;;5091986;28;20040;-38
2023/03/18 10:25:17;;;;;;;6.82;4.55;;;16.00;1.00;;;;;;5091112;28;20032;-38
2023/03/18 10:28:02;;;;;;;8.32;4.63;;;16.10;1.00;;;;;;5084899;28;20906;-38
2023/03/18 10:30:39;;;;;;;8.13;4.88;;;16.10;1.00;;;;;;5092004;28;20101;-38
2023/03/18 10:33:30;;;;;;;11.45;5.68;;;16.10;1.00;;;;;;5088889;28;20101;-38
2023/03/18 10:36:28;;;;;;;11.18;6.10;;;16.10;1.00;;;;;;5090800;28;20119;-38
2023/03/18 10:38:56;;;;;;;10.57;6.00;;;16.10;1.00;;;;;;5081947;28;20126;-38
2023/03/18 10:41:33;;;;;;;11.50;7.38;;;16.10;1.00;;;;;;5086869;28;20070;-38
2023/03/18 10:44:06;;;;;;;9.30;5.80;;;16.10;1.00;;;;;;5089235;28;20043;-37
2023/03/18 10:46:36;;;;;;;8.82;5.65;;;16.10;1.00;;;;;;5089097;28;20412;-37
2023/03/18 10:49:10;;;;;;;12.73;6.93;;;16.10;1.00;;;;;;5083869;28;20144;-37
2023/03/18 10:51:55;;;;;;;11.13;7.25;;;16.20;1.00;;;;;;5080480;28;20046;-37
2023/03/18 10:54:45;;;;;;;9.30;5.72;;;16.20;1.00;;;;;;5084633;28;20115;-38
2023/03/18 10:57:14;;;;;;;10.07;7.45;;;16.20;1.00;;;;;;5069194;28;20131;-38
2023/03/18 10:59:44;;;;;;;12.02;6.55;;;16.20;1.00;;;;;;5088892;28;20040;-38
2023/03/18 11:02:25;;;;;;;11.70;7.75;;;16.20;1.00;;;;;;5088183;28;20097;-38
2023/03/18 11:05:06;;;;;;;12.05;6.97;;;16.20;1.00;;;;;;5082668;28;20074;-38
2023/03/18 11:07:32;;;;;;;9.88;6.30;;;16.20;1.00;;;;;;5081771;28;21579;-38
2023/03/18 11:10:23;;;;;;;10.55;6.88;;;16.20;1.00;;;;;;5091729;28;20127;-38
2023/03/18 11:12:54;;;;;;;10.00;6.63;;;16.30;1.00;;;;;;5091061;28;20059;-38
2023/03/18 11:15:22;;;;;;;15.65;7.05;;;16.30;1.00;;;;;;5091795;28;20396;-37
2023/03/18 11:17:50;;;;;;;12.50;7.22;;;16.30;1.00;;;;;;5091643;28;20445;-38
2023/03/18 11:20:24;;;;;;;11.75;6.80;;;16.30;1.00;;;;;;5091563;28;20064;-38
2023/03/18 11:22:54;;;;;;;11.85;6.50;;;16.30;1.00;;;;;;5090839;28;20044;-38
2023/03/18 11:25:25;;;;;;;10.25;5.18;;;16.30;1.00;;;;;;5088990;28;20048;-38
2023/03/18 11:28:03;;;;;;;7.28;5.65;;;16.30;1.00;;;;;;5087898;28;20040;-37
2023/03/18 11:30:45;;;;;;;12.38;5.57;;;16.30;1.00;;;;;;5091382;28;20048;-38
2023/03/18 11:33:14;;;;;;;11.52;5.68;;;16.30;1.00;;;;;;5090823;28;20040;-38
2023/03/18 11:35:50;;;;;;;9.80;5.60;;;16.30;1.00;;;;;;5071379;28;20388;-37
2023/03/18 11:38:37;;;;;;;9.80;5.70;;;16.30;1.00;;;;;;5071187;28;20060;-37
2023/03/18 11:41:16;;;;;;;8.63;5.85;;;16.30;1.00;;;;;;5071420;28;20048;-37
2023/03/18 11:44:00;;;;;;;8.98;6.25;;;16.30;1.00;;;;;;5070556;28;20082;-38
2023/03/18 11:46:34;;;;;;;7.95;5.00;;;16.30;1.00;;;;;;5071320;28;20053;-38
2023/03/18 11:49:02;;;;;;;7.75;5.45;;;16.30;1.00;;;;;;5071233;28;20075;-38
2023/03/18 11:51:41;;;;;;;8.45;4.88;;;16.30;1.00;;;;;;5074481;28;20376;-37
2023/03/18 11:54:21;;;;;;;9.15;4.38;;;16.30;1.00;;;;;;5091799;28;20059;-38
2023/03/18 11:56:57;;;;;;;5.53;4.70;;;16.40;1.00;;;;;;5084393;28;20050;-38
2023/03/18 11:59:27;;;;;;;10.13;5.07;;;16.40;1.00;;;;;;5093209;28;20039;-37
2023/03/18 12:02:13;;;;;;;11.80;4.35;;;16.40;1.00;;;;;;5094888;28;20038;-38
2023/03/18 12:05:02;;;;;;;10.13;4.40;;;16.40;1.00;;;;;;5092038;28;20456;-38
2023/03/18 12:08:09;;;;;;;5.72;3.85;;;16.40;1.00;;;;;;5090951;28;20050;-38
2023/03/18 12:10:47;;;;;;;7.35;4.40;;;16.40;1.00;;;;;;5093858;28;20059;-38
2023/03/18 12:13:18;;;;;;;5.63;3.55;;;16.40;1.00;;;;;;5089504;28;20079;-38
2023/03/18 12:16:02;;;;;;;6.32;3.55;;;16.40;1.00;;;;;;5082463;28;20032;-38
2023/03/18 12:18:44;;;;;;;4.68;2.40;;;16.40;1.00;;;;;;5094562;28;20044;-37
2023/03/18 12:21:40;;;;;;;5.32;3.78;;;16.40;1.00;;;;;;5094578;28;20040;-37
2023/03/18 12:24:41;;;;;;;12.27;3.40;;;16.40;1.00;;;;;;5093753;28;20462;-38
2023/03/18 12:27:40;;;;;;;5.10;2.72;;;16.40;1.00;;;;;;5094551;28;20046;-37
2023/03/18 12:30:25;;;;;;;5.88;2.67;;;16.40;1.00;;;;;;5094229;28;20055;-37
2023/03/18 12:33:03;;;;;;;10.90;3.40;;;16.40;1.00;;;;;;5093716;28;20040;-37
2023/03/18 12:35:48;;;;;;;8.10;3.80;;;16.40;1.00;;;;;;5094445;28;20048;-37
2023/03/18 12:38:37;;;;;;;4.60;3.20;;;16.40;1.00;;;;;;5094318;28;20044;-38
2023/03/18 12:41:26;;;;;;;3.92;2.67;;;16.40;1.00;;;;;;5093022;28;20028;-38
2023/03/18 12:44:21;;;;;;;8.73;2.75;;;16.40;1.00;;;;;;5091787;28;20491;-37
2023/03/18 12:46:53;;;;;;;3.90;2.58;;;16.40;1.00;;;;;;5073951;28;20466;-37
2023/03/18 12:49:28;;;;;;;3.03;2.28;;;16.40;1.00;;;;;;5076269;28;21079;-38
2023/03/18 12:52:13;;;;;;;9.38;3.25;;;16.40;1.00;;;;;;5092635;28;20556;-37
2023/03/18 12:54:47;;;;;;;9.82;3.95;;;16.40;1.00;;;;;;5092046;28;20043;-37
2023/03/18 12:57:30;;;;;;;7.60;5.03;;;16.40;1.00;;;;;;5086380;28;20123;-37
2023/03/18 13:00:01;;;;;;;10.83;5.20;;;16.40;1.00;;;;;;5089109;28;20068;-37
2023/03/18 13:02:51;;;;;;;9.93;6.38;;;16.40;1.00;;;;;;5088898;28;20248;-37
2023/03/18 13:05:40;;;;;;;10.07;6.63;;;16.40;1.00;;;;;;5082934;28;20093;-37
2023/03/18 13:08:45;;;;;;;12.30;6.68;;;16.40;1.00;;;;;;5093549;28;20127;-38
2023/03/18 13:11:23;;;;;;;13.65;7.75;;;16.40;1.00;;;;;;5084376;28;20048;-38